Time;durP1;ratioP1;P1;durP2;ratioP2;P2;SDS_P1;SDS_P2;PMS_P1;PMS_P2;Temp;Humidity;BMP_temperature;BMP_pressure;BME280_temperature;BME280_humidity;BME280_pressure;Samples;Min_cycle;Max_cycle;Signal;HPM_P1;HPM_P2
2022/01/23 00:00:40;;;;;;;10.77;6.35;;;5.90;99.90;;;;;;5067765;28;20052;-78
2022/01/23 00:03:10;;;;;;;13.32;6.07;;;5.90;99.90;;;;;;5066263;28;20041;-77
2022/01/23 00:05:40;;;;;;;20.80;6.30;;;5.90;99.90;;;;;;5067821;28;20171;-77
2022/01/23 00:08:06;;;;;;;11.68;7.32;;;5.90;99.90;;;;;;5049236;28;20053;-77
2022/01/23 00:10:33;;;;;;;16.92;5.95;;;5.90;99.90;;;;;;5067541;28;20410;-77
2022/01/23 00:13:25;;;;;;;19.38;6.57;;;5.80;99.90;;;;;;5067222;28;20055;-78
2022/01/23 00:18:34;;;;;;;8.40;5.55;;;5.90;99.90;;;;;;5066333;28;20044;-77
2022/01/23 00:21:00;;;;;;;9.63;5.90;;;5.80;99.90;;;;;;5067439;28;20032;-76
2022/01/23 00:30:18;;;;;;;11.60;6.45;;;5.80;99.90;;;;;;5067868;28;20585;-77
2022/01/23 00:31:46;;;;;;;16.10;7.03;;;5.90;99.90;;;;;;5066987;28;20048;-77
2022/01/23 00:34:11;;;;;;;13.32;5.63;;;5.90;99.90;;;;;;5066391;28;20033;-76
2022/01/23 00:36:37;;;;;;;9.07;5.60;;;5.80;99.90;;;;;;5066936;28;20036;-79
2022/01/23 00:39:03;;;;;;;12.38;5.45;;;5.80;99.90;;;;;;5049481;28;20049;-78
2022/01/23 00:41:29;;;;;;;11.20;5.18;;;5.80;99.90;;;;;;5067559;28;20440;-78
2022/01/23 00:43:54;;;;;;;5.53;4.32;;;5.80;99.90;;;;;;5066971;28;20040;-78
2022/01/23 00:46:23;;;;;;;16.48;5.72;;;5.80;99.90;;;;;;5079207;28;20174;-78
2022/01/23 00:51:31;;;;;;;9.82;5.22;;;5.80;99.90;;;;;;5069740;28;20287;-78
2022/01/23 00:53:57;;;;;;;9.90;4.28;;;5.80;99.90;;;;;;5087081;28;20044;-78
2022/01/23 00:56:23;;;;;;;14.50;5.50;;;5.80;99.90;;;;;;5087167;28;20044;-78
2022/01/23 00:58:48;;;;;;;15.73;6.18;;;5.80;99.90;;;;;;5086674;28;20043;-76
2022/01/23 01:01:15;;;;;;;14.13;5.80;;;5.80;99.90;;;;;;5086993;28;20083;-76
2022/01/23 01:03:40;;;;;;;9.98;5.15;;;5.80;99.90;;;;;;5086190;28;20505;-77
2022/01/23 01:06:06;;;;;;;17.35;5.53;;;5.80;99.90;;;;;;5086965;28;20084;-77
2022/01/23 01:08:32;;;;;;;14.65;5.75;;;5.90;99.90;;;;;;5086869;28;20119;-77
2022/01/23 01:13:32;;;;;;;16.73;6.07;;;5.80;99.90;;;;;;5086959;28;20040;-78
2022/01/23 01:16:51;;;;;;;12.55;4.78;;;5.80;99.90;;;;;;5086697;28;20044;-76
2022/01/23 01:35:45;;;;;;;13.07;7.43;;;5.80;99.90;;;;;;5004350;28;20166;-77
2022/01/23 01:38:11;;;;;;;12.32;5.22;;;5.80;99.90;;;;;;5004637;28;20495;-78
2022/01/23 01:40:37;;;;;;;14.10;6.65;;;5.90;99.90;;;;;;5047851;28;20063;-77
2022/01/23 01:43:04;;;;;;;16.42;8.15;;;5.80;99.90;;;;;;5086251;28;20036;-78
2022/01/23 01:45:31;;;;;;;12.88;7.25;;;5.80;99.90;;;;;;5086263;28;20051;-76
2022/01/23 01:48:00;;;;;;;13.52;6.55;;;5.80;99.90;;;;;;5085312;28;20405;-77
2022/01/23 01:50:26;;;;;;;28.85;12.27;;;5.80;99.90;;;;;;5089740;28;20036;-78
2022/01/23 01:52:52;;;;;;;19.38;11.32;;;5.80;99.90;;;;;;5090094;28;20039;-78
2022/01/23 01:55:28;;;;;;;17.48;10.30;;;5.80;99.90;;;;;;5072006;28;20040;-77
2022/01/23 01:58:01;;;;;;;18.70;9.02;;;5.80;99.90;;;;;;5090111;28;20044;-78
2022/01/23 02:08:28;;;;;;;20.15;7.55;;;5.80;99.90;;;;;;5071718;28;20127;-78
2022/01/23 02:11:05;;;;;;;28.80;9.15;;;5.80;99.90;;;;;;5089838;28;20052;-77
2022/01/23 02:51:14;;;;;;;12.27;6.95;;;5.70;99.90;;;;;;5088754;28;20040;-77
2022/01/23 02:54:07;;;;;;;17.13;8.07;;;5.70;99.90;;;;;;5089209;28;20063;-77
2022/01/23 02:56:33;;;;;;;13.10;7.45;;;5.70;99.90;;;;;;5088096;28;20055;-76
2022/01/23 02:59:10;;;;;;;15.27;6.75;;;5.70;99.90;;;;;;5088877;28;20044;-77
2022/01/23 03:01:45;;;;;;;21.95;7.88;;;5.60;99.90;;;;;;5069886;28;20052;-77
2022/01/23 03:04:11;;;;;;;13.07;6.78;;;5.70;99.90;;;;;;5070190;28;20052;-78
2022/01/23 03:06:56;;;;;;;17.10;7.63;;;5.70;99.90;;;;;;5088843;28;20693;-77
2022/01/23 03:25:58;;;;;;;32.80;7.10;;;5.50;99.90;;;;;;5088349;28;20044;-78
2022/01/23 03:31:06;;;;;;;10.18;5.78;;;5.60;99.90;;;;;;5088983;28;20127;-76
2022/01/23 03:33:33;;;;;;;14.90;6.35;;;5.70;99.90;;;;;;5087988;28;20459;-78
2022/01/23 03:35:59;;;;;;;23.88;6.80;;;5.60;99.90;;;;;;5088216;28;20072;-78
2022/01/23 03:38:25;;;;;;;12.93;6.53;;;5.50;99.90;;;;;;5088283;28;20048;-78
2022/01/23 03:40:51;;;;;;;10.57;6.75;;;5.50;99.90;;;;;;5088049;28;20433;-78
2022/01/23 03:43:25;;;;;;;18.55;7.63;;;5.50;99.90;;;;;;5088099;28;20067;-77
2022/01/23 03:46:08;;;;;;;12.48;5.90;;;5.50;99.90;;;;;;5087579;28;20245;-77
2022/01/23 03:51:00;;;;;;;8.05;5.82;;;5.50;99.90;;;;;;5087712;28;20131;-78
2022/01/23 03:53:25;;;;;;;18.63;6.82;;;5.50;99.90;;;;;;5087896;28;20071;-77
2022/01/23 03:55:53;;;;;;;12.82;6.68;;;5.50;99.90;;;;;;5087711;28;20035;-78
2022/01/23 03:58:18;;;;;;;14.27;7.35;;;5.50;99.90;;;;;;5087741;28;20059;-77
2022/01/23 04:00:44;;;;;;;13.23;7.70;;;5.50;99.90;;;;;;5087444;28;20040;-77
2022/01/23 04:03:10;;;;;;;16.63;7.63;;;5.60;99.90;;;;;;5087189;28;20044;-77
2022/01/23 04:05:35;;;;;;;9.85;6.82;;;5.50;99.90;;;;;;5069638;28;20040;-77
2022/01/23 04:08:01;;;;;;;9.68;5.63;;;5.50;99.90;;;;;;5087531;28;20135;-78
2022/01/23 04:10:27;;;;;;;12.52;6.68;;;5.50;99.90;;;;;;5069948;28;20047;-78
2022/01/23 04:12:57;;;;;;;12.07;7.05;;;5.50;99.90;;;;;;5086908;28;20050;-77
2022/01/23 04:15:39;;;;;;;18.65;8.57;;;5.50;99.90;;;;;;5087352;28;20060;-78
2022/01/23 04:21:04;;;;;;;7.57;5.38;;;5.60;99.90;;;;;;5087187;28;20044;-76
2022/01/23 04:32:14;;;;;;;15.40;6.65;;;5.50;99.90;;;;;;5063093;28;20456;-76
2022/01/23 04:45:32;;;;;;;13.65;5.80;;;5.60;99.90;;;;;;5069008;28;20460;-77
2022/01/23 05:04:41;;;;;;;23.83;6.50;;;5.50;99.90;;;;;;5087452;28;20051;-77
2022/01/23 05:07:13;;;;;;;15.60;6.30;;;5.50;99.90;;;;;;5086758;28;20481;-77
2022/01/23 05:09:39;;;;;;;11.85;5.70;;;5.60;99.90;;;;;;5087370;28;20483;-78
2022/01/23 05:12:07;;;;;;;14.63;6.28;;;5.50;99.90;;;;;;5086852;28;20089;-78
2022/01/23 05:14:39;;;;;;;15.30;6.60;;;5.50;99.90;;;;;;5087203;28;20054;-78
2022/01/23 05:17:08;;;;;;;15.77;6.10;;;5.50;99.90;;;;;;5067435;28;20124;-78
2022/01/23 05:19:34;;;;;;;16.77;6.95;;;5.60;99.90;;;;;;5068572;28;20058;-77
2022/01/23 05:24:37;;;;;;;18.02;8.18;;;5.50;99.90;;;;;;5088744;28;20085;-78
2022/01/23 05:27:06;;;;;;;20.98;8.82;;;5.60;99.90;;;;;;5090468;28;20040;-77
2022/01/23 05:29:33;;;;;;;25.23;7.75;;;5.60;99.90;;;;;;5072670;28;20056;-77
2022/01/23 05:31:58;;;;;;;16.75;6.18;;;5.60;99.90;;;;;;5089234;28;20040;-77
2022/01/23 05:34:25;;;;;;;16.38;6.75;;;5.50;99.90;;;;;;5090612;28;20051;-78
2022/01/23 05:36:51;;;;;;;17.90;6.97;;;5.50;99.90;;;;;;5090350;28;20159;-78
2022/01/23 05:39:19;;;;;;;15.05;5.40;;;5.50;99.90;;;;;;5090392;28;20123;-77
2022/01/23 05:41:45;;;;;;;16.50;6.82;;;5.60;99.90;;;;;;5090244;28;20040;-77
2022/01/23 05:44:10;;;;;;;19.15;7.32;;;5.50;99.90;;;;;;5090764;28;20421;-76
2022/01/23 05:46:36;;;;;;;30.58;8.80;;;5.60;99.90;;;;;;5089144;28;20052;-77
2022/01/23 05:49:02;;;;;;;11.50;6.03;;;5.50;99.90;;;;;;5072148;28;20036;-77
2022/01/23 05:51:27;;;;;;;19.75;6.15;;;5.60;99.90;;;;;;5072661;28;20805;-78
2022/01/23 05:53:54;;;;;;;16.85;6.78;;;5.50;99.90;;;;;;5090046;28;20366;-78
2022/01/23 05:56:19;;;;;;;23.90;6.50;;;5.50;99.90;;;;;;5090394;28;20119;-77
2022/01/23 05:58:45;;;;;;;36.45;6.90;;;5.50;99.90;;;;;;5089841;28;20044;-78
2022/01/23 06:01:10;;;;;;;30.00;6.35;;;5.50;99.90;;;;;;5090451;28;20044;-77
2022/01/23 06:03:36;;;;;;;25.90;8.88;;;5.50;99.90;;;;;;5089021;28;20043;-77
2022/01/23 06:06:02;;;;;;;52.85;7.47;;;5.50;99.90;;;;;;5071824;28;20505;-77
2022/01/23 06:08:27;;;;;;;43.55;8.85;;;5.50;99.90;;;;;;5071915;28;20126;-78
2022/01/23 06:10:56;;;;;;;74.80;10.73;;;5.50;99.90;;;;;;5089913;28;20477;-78
2022/01/23 06:13:22;;;;;;;44.40;9.35;;;5.50;99.90;;;;;;5071978;28;20044;-77
2022/01/23 06:15:48;;;;;;;63.95;7.95;;;5.40;99.90;;;;;;5089720;28;20040;-78
2022/01/23 06:18:14;;;;;;;90.30;9.60;;;5.50;99.90;;;;;;5070698;28;20032;-77
2022/01/23 06:20:39;;;;;;;60.40;8.32;;;5.40;99.90;;;;;;5090234;28;20052;-77
2022/01/23 06:23:05;;;;;;;97.97;10.57;;;5.50;99.90;;;;;;5089465;28;20516;-77
2022/01/23 06:25:34;;;;;;;43.22;7.03;;;5.30;99.90;;;;;;5089946;28;20605;-78
2022/01/23 06:28:03;;;;;;;56.20;8.15;;;5.30;99.90;;;;;;5089289;28;20040;-76
2022/01/23 06:30:28;;;;;;;33.08;7.88;;;5.40;99.90;;;;;;5089492;28;20144;-78
2022/01/23 06:32:54;;;;;;;71.97;7.65;;;5.40;99.90;;;;;;5088200;28;20537;-77
2022/01/23 06:35:20;;;;;;;19.60;6.60;;;5.40;99.90;;;;;;5089412;28;20105;-77
2022/01/23 06:37:45;;;;;;;28.52;5.63;;;5.40;99.90;;;;;;5089112;28;20047;-77
2022/01/23 06:40:11;;;;;;;16.80;5.78;;;5.40;99.90;;;;;;5071588;28;20079;-78
2022/01/23 06:42:37;;;;;;;30.00;6.28;;;5.40;99.90;;;;;;5089267;28;20078;-76
2022/01/23 06:45:03;;;;;;;16.10;5.10;;;5.50;99.90;;;;;;5088617;28;20087;-76
2022/01/23 06:47:29;;;;;;;30.90;6.05;;;5.40;99.90;;;;;;5070009;28;20036;-76
2022/01/23 06:49:54;;;;;;;55.25;7.10;;;5.30;99.90;;;;;;5070821;28;20119;-76
2022/01/23 06:52:20;;;;;;;18.92;5.13;;;5.40;99.90;;;;;;5089240;28;20112;-77
2022/01/23 06:54:46;;;;;;;38.47;5.97;;;5.40;99.90;;;;;;5088791;28;20529;-76
2022/01/23 06:57:11;;;;;;;17.00;5.25;;;5.30;99.90;;;;;;5089152;28;20081;-77
2022/01/23 06:59:37;;;;;;;12.60;5.22;;;5.30;99.90;;;;;;5054341;28;20065;-77
2022/01/23 07:02:03;;;;;;;31.88;6.32;;;5.30;99.90;;;;;;5087500;28;20051;-76
2022/01/23 07:04:29;;;;;;;59.53;7.00;;;5.30;99.90;;;;;;5070926;28;20052;-77
2022/01/23 07:06:56;;;;;;;41.40;7.03;;;5.30;99.90;;;;;;5070678;28;20039;-77
2022/01/23 07:09:21;;;;;;;17.23;6.03;;;5.30;99.90;;;;;;5088792;28;20044;-77
2022/01/23 07:11:47;;;;;;;27.83;5.70;;;5.40;99.90;;;;;;5070207;28;20885;-76
2022/01/23 07:14:12;;;;;;;14.88;5.88;;;5.30;99.90;;;;;;5089290;28;20040;-73
2022/01/23 07:16:38;;;;;;;10.10;4.15;;;5.40;99.90;;;;;;5087723;28;20036;-76
2022/01/23 07:19:04;;;;;;;16.42;4.53;;;5.30;99.90;;;;;;5088357;28;20055;-77
2022/01/23 07:21:29;;;;;;;16.48;5.03;;;5.30;99.90;;;;;;5088306;28;20032;-76
2022/01/23 07:23:55;;;;;;;10.43;5.35;;;5.30;99.90;;;;;;5069849;28;20036;-76
2022/01/23 07:26:22;;;;;;;13.43;6.22;;;5.40;99.90;;;;;;5070414;28;20043;-77
2022/01/23 07:28:51;;;;;;;9.98;5.28;;;5.30;99.90;;;;;;5088174;28;20051;-76
2022/01/23 07:31:32;;;;;;;14.07;5.63;;;5.40;99.90;;;;;;5087179;28;20119;-76
2022/01/23 07:34:03;;;;;;;11.18;5.80;;;5.40;99.90;;;;;;5069902;28;20044;-77
2022/01/23 07:36:29;;;;;;;9.75;3.78;;;5.50;99.90;;;;;;5088325;28;20111;-75
2022/01/23 07:38:55;;;;;;;6.80;4.10;;;5.40;99.90;;;;;;5087802;28;20123;-76
2022/01/23 07:41:21;;;;;;;8.55;4.93;;;5.50;99.90;;;;;;5087968;28;20040;-77
2022/01/23 07:43:47;;;;;;;10.90;4.13;;;5.50;99.90;;;;;;5087276;28;20054;-77
2022/01/23 07:46:13;;;;;;;6.85;3.92;;;5.40;99.90;;;;;;5086383;28;20055;-75
2022/01/23 07:48:38;;;;;;;7.38;4.85;;;5.50;99.90;;;;;;5087976;28;20406;-76
2022/01/23 07:51:04;;;;;;;6.32;4.95;;;5.50;99.90;;;;;;5087626;28;20063;-77
2022/01/23 07:53:29;;;;;;;7.85;4.38;;;5.50;99.90;;;;;;5069867;28;20090;-77
2022/01/23 07:55:55;;;;;;;9.15;5.28;;;5.50;99.90;;;;;;5087260;28;20046;-76
2022/01/23 07:58:21;;;;;;;8.10;4.80;;;5.40;99.90;;;;;;5087188;28;20040;-76
2022/01/23 08:00:47;;;;;;;6.00;4.38;;;5.50;99.90;;;;;;5087305;28;20379;-76
2022/01/23 08:03:13;;;;;;;6.80;4.38;;;5.50;99.90;;;;;;5086640;28;20047;-74
2022/01/23 08:05:39;;;;;;;5.40;4.43;;;5.50;99.90;;;;;;5069607;28;20040;-76
2022/01/23 08:08:05;;;;;;;9.05;3.75;;;5.50;99.90;;;;;;5052619;28;20044;-76
2022/01/23 08:10:31;;;;;;;8.10;5.28;;;5.50;99.90;;;;;;5087334;28;20044;-76
2022/01/23 08:12:56;;;;;;;7.88;5.70;;;5.50;99.90;;;;;;5087219;28;20115;-76
2022/01/23 08:15:22;;;;;;;6.80;4.18;;;5.50;99.90;;;;;;5087324;28;20086;-76
2022/01/23 08:17:48;;;;;;;4.88;3.63;;;5.50;99.90;;;;;;5086158;28;20486;-76
2022/01/23 08:20:13;;;;;;;7.80;4.20;;;5.40;99.90;;;;;;5087478;28;20097;-76
2022/01/23 08:22:39;;;;;;;3.85;2.67;;;5.50;99.90;;;;;;5088186;28;20396;-77
2022/01/23 08:25:06;;;;;;;6.72;3.55;;;5.50;99.90;;;;;;5069132;28;20089;-77
2022/01/23 08:27:31;;;;;;;7.28;4.32;;;5.60;99.90;;;;;;5087509;28;20093;-78
2022/01/23 08:29:58;;;;;;;9.00;4.03;;;5.50;99.90;;;;;;5086940;28;20036;-77
2022/01/23 08:32:24;;;;;;;5.50;4.38;;;5.60;99.90;;;;;;5068243;28;20058;-78
2022/01/23 08:34:50;;;;;;;4.95;3.40;;;5.50;99.90;;;;;;5052212;28;20102;-76
2022/01/23 08:37:16;;;;;;;7.55;3.42;;;5.60;99.90;;;;;;5069124;28;20044;-77
2022/01/23 08:39:42;;;;;;;6.15;4.07;;;5.60;99.90;;;;;;5069349;28;20505;-77
2022/01/23 08:42:16;;;;;;;6.65;3.35;;;5.60;99.90;;;;;;5087757;28;20040;-77
2022/01/23 08:44:44;;;;;;;4.78;3.00;;;5.70;99.90;;;;;;5087454;28;20071;-76
2022/01/23 08:47:09;;;;;;;5.53;3.70;;;5.70;99.90;;;;;;5086332;28;20048;-76
2022/01/23 08:49:44;;;;;;;3.80;3.17;;;5.60;99.90;;;;;;5086921;28;20494;-76
2022/01/23 08:52:09;;;;;;;5.00;3.53;;;5.70;99.90;;;;;;5069721;28;20429;-76
2022/01/23 08:54:35;;;;;;;5.22;3.50;;;5.80;99.90;;;;;;5086977;28;20123;-78
2022/01/23 08:57:01;;;;;;;6.43;3.85;;;5.70;99.90;;;;;;5068880;28;20414;-76
2022/01/23 08:59:26;;;;;;;5.60;3.60;;;5.80;99.90;;;;;;5090426;28;20128;-79
2022/01/23 09:01:52;;;;;;;8.10;3.40;;;5.80;99.90;;;;;;5090044;28;20150;-76
2022/01/23 09:04:17;;;;;;;6.05;3.53;;;5.80;99.90;;;;;;5072975;28;20375;-77
2022/01/23 09:06:44;;;;;;;9.23;5.43;;;5.90;99.90;;;;;;5090404;28;20047;-76
2022/01/23 09:09:16;;;;;;;6.28;4.90;;;5.90;99.90;;;;;;5073023;28;20509;-77
2022/01/23 09:11:56;;;;;;;8.00;5.68;;;5.90;99.90;;;;;;5073012;28;20040;-75
2022/01/23 09:14:22;;;;;;;8.32;5.53;;;6.00;99.90;;;;;;5072729;28;20674;-77
2022/01/23 09:16:48;;;;;;;6.05;4.30;;;6.00;99.90;;;;;;5089783;28;20052;-76
2022/01/23 09:19:16;;;;;;;6.50;4.60;;;6.00;99.90;;;;;;5090828;28;20401;-75
2022/01/23 09:21:42;;;;;;;7.97;5.55;;;6.00;99.90;;;;;;5090754;28;20047;-75
2022/01/23 09:24:07;;;;;;;9.20;5.57;;;6.00;99.90;;;;;;5091003;28;20051;-77
2022/01/23 09:26:36;;;;;;;6.78;4.82;;;6.00;99.90;;;;;;5090720;28;20032;-77
2022/01/23 09:29:11;;;;;;;6.15;4.50;;;6.10;99.90;;;;;;5090590;28;20051;-77
2022/01/23 09:31:49;;;;;;;7.93;5.25;;;6.10;99.90;;;;;;5089508;28;20332;-78
2022/01/23 09:34:17;;;;;;;11.02;7.95;;;6.00;99.90;;;;;;5072361;28;20051;-79
2022/01/23 09:36:43;;;;;;;10.93;6.85;;;6.10;99.90;;;;;;5090243;28;20037;-77
2022/01/23 09:39:10;;;;;;;9.18;8.27;;;6.10;99.90;;;;;;5090700;28;20054;-77
2022/01/23 09:41:40;;;;;;;8.82;6.15;;;6.10;99.90;;;;;;5090370;28;20054;-78
2022/01/23 09:44:06;;;;;;;;;;;6.20;99.90;;;;;;5091216;28;20042;-77
2022/01/23 09:46:31;;;;;;;8.27;4.68;;;6.10;99.90;;;;;;5073205;28;19919;-77
2022/01/23 09:48:57;;;;;;;6.78;5.07;;;6.20;99.90;;;;;;5072695;28;20510;-78
2022/01/23 09:51:25;;;;;;;10.75;6.90;;;6.10;99.90;;;;;;5091140;28;20040;-78
2022/01/23 09:53:54;;;;;;;8.48;5.70;;;6.30;99.90;;;;;;5071904;28;20052;-76
2022/01/23 09:56:26;;;;;;;8.98;5.70;;;6.20;99.90;;;;;;5090281;28;20111;-76
2022/01/23 09:58:53;;;;;;;14.50;9.00;;;6.30;99.90;;;;;;5071731;28;20496;-77
2022/01/23 10:01:20;;;;;;;10.98;6.40;;;6.30;99.90;;;;;;5089003;28;20463;-77
2022/01/23 10:03:46;;;;;;;6.85;4.68;;;6.30;99.90;;;;;;5071463;28;20086;-77
2022/01/23 10:06:12;;;;;;;5.70;4.85;;;6.30;99.90;;;;;;5090249;28;20067;-77
2022/01/23 10:08:38;;;;;;;14.07;4.63;;;6.30;99.90;;;;;;5089974;28;20134;-78
2022/01/23 10:11:08;;;;;;;5.80;3.90;;;6.40;99.90;;;;;;5089107;28;20094;-78
2022/01/23 10:13:34;;;;;;;5.15;3.58;;;6.40;99.90;;;;;;5089657;28;20082;-78
2022/01/23 10:16:00;;;;;;;4.85;3.47;;;6.40;99.90;;;;;;5088503;28;20071;-78
2022/01/23 10:18:27;;;;;;;4.45;3.45;;;6.40;99.90;;;;;;5071507;28;20036;-78
2022/01/23 10:20:52;;;;;;;4.32;3.00;;;6.50;99.90;;;;;;5070990;28;20529;-77
2022/01/23 10:23:19;;;;;;;4.43;3.55;;;6.50;99.90;;;;;;5089698;28;20047;-78
2022/01/23 10:25:47;;;;;;;3.85;3.33;;;6.50;99.90;;;;;;5070961;28;20141;-78
2022/01/23 10:28:19;;;;;;;4.50;3.67;;;6.40;99.90;;;;;;5089359;28;20077;-74
2022/01/23 10:30:58;;;;;;;6.30;5.05;;;6.50;99.90;;;;;;5088345;28;20036;-78
2022/01/23 10:33:27;;;;;;;4.70;3.88;;;6.60;99.90;;;;;;5089342;28;20119;-77
2022/01/23 10:36:11;;;;;;;5.20;3.63;;;6.70;99.90;;;;;;5071014;28;20505;-77
2022/01/23 10:38:56;;;;;;;5.45;3.22;;;6.60;99.90;;;;;;5089066;28;20105;-76
2022/01/23 10:49:49;;;;;;;3.22;2.92;;;6.60;99.90;;;;;;5088850;28;20056;-77
2022/01/23 10:52:38;;;;;;;5.15;3.70;;;6.70;99.90;;;;;;5070671;28;20040;-78
2022/01/23 10:55:13;;;;;;;5.35;2.85;;;6.80;99.90;;;;;;5088672;28;20036;-77
2022/01/23 10:57:41;;;;;;;4.47;3.25;;;6.80;99.90;;;;;;5088866;28;20036;-77
2022/01/23 11:00:32;;;;;;;4.93;3.85;;;6.80;99.90;;;;;;5089008;28;20085;-77
2022/01/23 11:02:59;;;;;;;;;;;6.80;99.90;;;;;;5059607;28;20418;-77
2022/01/23 11:05:31;;;;;;;5.15;3.80;;;6.80;99.90;;;;;;5070609;28;19966;-78
2022/01/23 11:07:57;;;;;;;7.47;4.45;;;6.80;99.90;;;;;;5088436;28;20040;-78
2022/01/23 11:10:23;;;;;;;6.22;4.28;;;6.90;99.90;;;;;;5088815;28;20093;-78
2022/01/23 11:18:08;;;;;;;4.95;3.35;;;7.00;99.90;;;;;;5070012;28;20080;-77
2022/01/23 11:20:39;;;;;;;4.97;3.85;;;7.00;99.90;;;;;;5088328;28;20529;-78
2022/01/23 11:23:22;;;;;;;5.22;2.80;;;7.00;99.90;;;;;;5087263;28;20040;-78
2022/01/23 11:25:57;;;;;;;3.42;2.40;;;7.00;99.90;;;;;;5070045;28;20379;-77
2022/01/23 11:28:31;;;;;;;3.40;2.45;;;7.00;99.90;;;;;;5088128;28;20043;-78
2022/01/23 11:30:57;;;;;;;3.80;3.08;;;7.00;99.90;;;;;;5087450;28;20336;-78
2022/01/23 11:33:22;;;;;;;5.53;4.13;;;7.10;99.90;;;;;;5088082;28;20054;-77
2022/01/23 11:35:49;;;;;;;8.93;4.35;;;7.00;99.90;;;;;;5088266;28;20075;-77
2022/01/23 11:38:19;;;;;;;4.32;2.78;;;7.00;99.90;;;;;;5069964;28;20409;-78
2022/01/23 11:54:45;;;;;;;7.50;4.97;;;7.00;99.90;;;;;;5087809;28;20044;-79
2022/01/23 11:57:33;;;;;;;5.53;4.20;;;7.00;99.90;;;;;;5088310;28;20048;-78
2022/01/23 12:00:02;;;;;;;6.32;4.82;;;7.10;99.90;;;;;;5069076;28;20139;-77
2022/01/23 12:02:35;;;;;;;6.50;4.90;;;7.00;99.90;;;;;;5068500;28;20089;-78
2022/01/23 12:05:15;;;;;;;5.50;4.15;;;7.10;99.90;;;;;;5087341;28;20079;-76
2022/01/23 12:07:42;;;;;;;6.30;5.25;;;7.10;99.90;;;;;;5069347;28;20059;-77
2022/01/23 12:10:15;;;;;;;8.57;5.20;;;7.10;99.90;;;;;;5069545;28;20044;-77
2022/01/23 12:12:45;;;;;;;18.90;11.00;;;7.10;99.90;;;;;;5069704;28;20094;-77
2022/01/23 12:18:22;;;;;;;10.90;6.97;;;7.10;99.90;;;;;;5087736;28;20097;-78
2022/01/23 12:20:50;;;;;;;7.78;5.30;;;7.10;99.90;;;;;;5068770;28;20057;-78
2022/01/23 12:23:16;;;;;;;7.32;5.68;;;7.10;99.90;;;;;;5087558;28;20051;-79
2022/01/23 12:25:48;;;;;;;9.38;6.65;;;7.10;99.90;;;;;;5087598;28;20484;-72
2022/01/23 12:28:27;;;;;;;9.82;5.97;;;7.00;99.90;;;;;;5087449;28;20343;-78
2022/01/23 12:30:58;;;;;;;7.68;5.30;;;7.10;99.90;;;;;;5086146;28;20105;-79
2022/01/23 12:33:43;;;;;;;8.63;6.00;;;7.10;99.90;;;;;;5087133;28;20075;-77
2022/01/23 12:36:15;;;;;;;6.93;5.15;;;7.10;99.90;;;;;;5087629;28;20123;-79
2022/01/23 12:38:44;;;;;;;16.33;5.63;;;7.10;99.90;;;;;;5087306;28;20096;-77
2022/01/23 12:41:22;;;;;;;6.68;4.68;;;7.20;99.90;;;;;;5087570;28;20056;-78
2022/01/23 12:43:53;;;;;;;8.48;4.50;;;7.20;99.90;;;;;;5086635;28;20488;-77
2022/01/23 12:46:30;;;;;;;5.80;4.18;;;7.20;99.90;;;;;;5086139;28;20044;-79
2022/01/23 12:48:59;;;;;;;6.90;4.65;;;7.20;99.90;;;;;;5086736;28;20080;-78
2022/01/23 12:51:34;;;;;;;5.85;3.45;;;7.20;99.90;;;;;;5069068;28;20048;-79
2022/01/23 12:54:00;;;;;;;7.97;3.42;;;7.20;99.90;;;;;;5087511;28;20158;-77
2022/01/23 12:56:30;;;;;;;6.43;3.70;;;7.20;99.90;;;;;;5087744;28;20525;-80
2022/01/23 12:59:04;;;;;;;6.95;4.63;;;7.20;99.90;;;;;;5086774;28;20040;-78
2022/01/23 13:01:30;;;;;;;5.63;3.60;;;7.20;99.90;;;;;;5086324;28;20044;-77
2022/01/23 13:03:58;;;;;;;10.27;5.47;;;7.20;99.90;;;;;;5086672;28;20036;-78
2022/01/23 13:06:35;;;;;;;12.43;4.53;;;7.20;99.90;;;;;;5086967;28;20048;-78
2022/01/23 13:12:05;;;;;;;4.93;3.40;;;7.20;99.90;;;;;;5086676;28;20044;-79
2022/01/23 13:15:14;;;;;;;5.95;5.32;;;7.20;99.90;;;;;;5087382;28;20055;-78
2022/01/23 13:34:52;;;;;;;9.02;6.25;;;7.20;99.90;;;;;;5086292;28;20059;-77
2022/01/23 13:37:24;;;;;;;12.43;5.10;;;7.10;99.90;;;;;;5068485;28;20062;-78
2022/01/23 13:39:59;;;;;;;6.35;4.60;;;7.20;99.90;;;;;;5086119;28;20040;-77
2022/01/23 13:42:53;;;;;;;5.38;3.10;;;7.20;99.90;;;;;;5086783;28;20075;-78
2022/01/23 13:59:26;;;;;;;8.55;5.38;;;7.10;99.90;;;;;;5090038;28;20470;-78
2022/01/23 14:02:06;;;;;;;10.13;5.68;;;7.10;99.90;;;;;;5070710;28;20410;-78
2022/01/23 14:04:38;;;;;;;14.43;6.22;;;7.10;99.90;;;;;;5090127;28;20495;-80
2022/01/23 14:07:04;;;;;;;9.07;5.15;;;7.10;99.90;;;;;;5090177;28;20077;-79
2022/01/23 14:09:43;;;;;;;6.72;4.25;;;7.10;99.90;;;;;;5090382;28;20502;-78
2022/01/23 14:12:11;;;;;;;6.78;4.40;;;7.10;99.90;;;;;;5072024;28;20040;-78
2022/01/23 14:15:00;;;;;;;5.93;4.65;;;7.10;99.90;;;;;;5089886;28;20044;-78
2022/01/23 14:17:35;;;;;;;6.93;5.32;;;7.10;99.90;;;;;;5070929;28;20040;-78
2022/01/23 14:20:11;;;;;;;6.85;3.92;;;7.10;99.90;;;;;;5089392;28;20485;-77
2022/01/23 14:22:40;;;;;;;10.38;6.18;;;7.00;99.90;;;;;;5089644;28;20608;-78
2022/01/23 14:25:08;;;;;;;5.63;4.03;;;7.00;99.90;;;;;;5071107;28;20043;-78
2022/01/23 14:27:33;;;;;;;7.18;4.65;;;6.90;99.90;;;;;;5071510;28;20044;-78
2022/01/23 14:30:04;;;;;;;9.35;4.30;;;7.00;99.90;;;;;;5089169;28;20548;-78
2022/01/23 14:32:45;;;;;;;7.78;5.20;;;7.00;99.90;;;;;;5089112;28;20105;-77
2022/01/23 14:35:12;;;;;;;9.85;5.07;;;7.00;99.90;;;;;;5089626;28;20047;-78
2022/01/23 14:37:40;;;;;;;8.50;5.22;;;7.00;99.90;;;;;;5089837;28;20048;-77
2022/01/23 14:40:15;;;;;;;9.73;5.78;;;7.00;99.90;;;;;;5088933;28;20059;-78
2022/01/23 14:42:55;;;;;;;7.32;5.88;;;6.90;99.90;;;;;;5071408;28;20144;-79
2022/01/23 14:45:21;;;;;;;11.20;4.85;;;6.90;99.90;;;;;;5087670;28;20055;-76
2022/01/23 14:47:47;;;;;;;9.60;4.55;;;6.90;99.90;;;;;;5070586;28;20516;-76
2022/01/23 14:50:14;;;;;;;7.22;3.85;;;6.90;99.90;;;;;;5070901;28;20079;-74
2022/01/23 14:52:40;;;;;;;8.18;5.20;;;6.90;99.90;;;;;;5089045;28;20147;-76
2022/01/23 14:55:08;;;;;;;7.20;4.45;;;6.90;99.90;;;;;;5088911;28;20123;-78
2022/01/23 14:57:34;;;;;;;8.20;4.43;;;6.90;99.90;;;;;;5070486;28;20124;-77
2022/01/23 15:00:02;;;;;;;8.80;4.10;;;6.90;99.90;;;;;;5087861;28;20122;-74
2022/01/23 15:02:28;;;;;;;8.52;4.00;;;6.80;99.90;;;;;;5070563;28;20245;-77
2022/01/23 15:04:56;;;;;;;9.75;5.07;;;6.80;99.90;;;;;;5070346;28;20066;-77
2022/01/23 15:07:22;;;;;;;6.05;4.75;;;6.90;99.90;;;;;;5088633;28;20142;-77
2022/01/23 15:09:50;;;;;;;8.38;4.90;;;6.80;99.90;;;;;;5070265;28;20055;-77
2022/01/23 15:12:17;;;;;;;7.15;5.05;;;6.80;99.90;;;;;;5088736;28;20048;-79
2022/01/23 15:14:43;;;;;;;7.43;5.32;;;6.80;99.90;;;;;;5088340;28;20040;-72
2022/01/23 15:17:09;;;;;;;7.65;4.90;;;6.80;99.90;;;;;;5087967;28;20043;-78
2022/01/23 15:19:35;;;;;;;11.98;4.78;;;6.80;99.90;;;;;;5088295;28;20044;-77
2022/01/23 15:22:01;;;;;;;8.15;5.45;;;6.80;99.90;;;;;;5087967;28;20085;-76
2022/01/23 15:24:28;;;;;;;5.88;4.80;;;6.80;99.90;;;;;;5088359;28;20036;-77
2022/01/23 15:26:54;;;;;;;6.70;5.18;;;6.80;99.90;;;;;;5088003;28;20044;-77
2022/01/23 15:29:19;;;;;;;7.65;6.28;;;6.80;99.90;;;;;;5088244;28;20502;-77
2022/01/23 15:31:47;;;;;;;8.00;4.90;;;6.70;99.90;;;;;;5052092;28;20501;-78
2022/01/23 15:34:15;;;;;;;5.68;4.95;;;6.80;99.90;;;;;;5088498;28;20048;-74
2022/01/23 15:36:41;;;;;;;6.93;5.53;;;6.70;99.90;;;;;;5088142;28;20047;-77
2022/01/23 15:39:07;;;;;;;10.10;5.68;;;6.70;99.90;;;;;;5087715;28;20098;-76
2022/01/23 15:41:32;;;;;;;7.90;5.47;;;6.70;99.90;;;;;;5088112;28;20090;-77
2022/01/23 15:43:58;;;;;;;7.70;5.88;;;6.70;99.90;;;;;;5087482;28;20039;-77
2022/01/23 15:46:23;;;;;;;7.85;4.32;;;6.70;99.90;;;;;;5087036;28;20154;-77
2022/01/23 15:48:49;;;;;;;6.82;4.38;;;6.70;99.90;;;;;;5087366;28;20131;-77
2022/01/23 15:51:15;;;;;;;9.32;6.22;;;6.60;99.90;;;;;;5087752;28;20040;-77
2022/01/23 15:53:41;;;;;;;7.30;4.95;;;6.60;99.90;;;;;;5088063;28;20047;-77
2022/01/23 15:56:06;;;;;;;10.70;5.88;;;6.70;99.90;;;;;;5052817;28;20044;-77
2022/01/23 15:58:32;;;;;;;7.07;5.20;;;6.60;99.90;;;;;;5069624;28;20043;-77
2022/01/23 16:00:58;;;;;;;6.78;5.05;;;6.60;99.90;;;;;;5086597;28;20044;-77
2022/01/23 16:03:26;;;;;;;7.85;6.00;;;6.60;99.90;;;;;;5069397;28;20072;-78
2022/01/23 16:05:52;;;;;;;21.33;7.28;;;6.60;99.90;;;;;;5087123;28;20108;-77
2022/01/23 16:08:19;;;;;;;11.55;6.97;;;6.60;99.90;;;;;;5086996;28;20040;-77
2022/01/23 16:10:44;;;;;;;9.13;6.28;;;6.60;99.90;;;;;;5087419;28;20047;-76
2022/01/23 16:13:10;;;;;;;8.77;7.10;;;6.60;99.90;;;;;;5069844;28;20043;-78
2022/01/23 16:15:36;;;;;;;18.58;8.30;;;6.60;99.90;;;;;;5086854;28;20115;-77
2022/01/23 16:18:02;;;;;;;8.98;6.22;;;6.60;99.90;;;;;;5069222;28;20039;-77
2022/01/23 16:20:28;;;;;;;8.73;6.32;;;6.60;99.90;;;;;;5087164;28;20106;-77
2022/01/23 16:22:54;;;;;;;8.98;7.05;;;6.60;99.90;;;;;;5087268;28;20061;-78
2022/01/23 16:25:21;;;;;;;14.75;7.63;;;6.50;99.90;;;;;;5087423;28;20135;-77